sensor_id;sensor_type;location;lat;lon;timestamp;pressure;altitude;pressure_sealevel;temperature;humidity
46638;BME280;32365;46.938;7.390;2022-10-22T06:35:36;95406.25;;;12.03;100.00
46638;BME280;32365;46.938;7.390;2022-10-22T06:38:03;95416.00;;;11.95;100.00
46638;BME280;32365;46.938;7.390;2022-10-22T06:40:30;95421.84;;;12.03;100.00
46638;BME280;32365;46.938;7.390;2022-10-22T06:42:57;95416.09;;;12.00;100.00
46638;BME280;32365;46.938;7.390;2022-10-22T06:45:24;95420.72;;;11.98;100.00
46638;BME280;32365;46.938;7.390;2022-10-22T06:47:50;95426.91;;;11.97;100.00
46638;BME280;32365;46.938;7.390;2022-10-22T06:50:17;95423.78;;;11.95;100.00
46638;BME280;32365;46.938;7.390;2022-10-22T06:52:45;95418.81;;;11.94;100.00
46638;BME280;32365;46.938;7.390;2022-10-22T06:55:12;95426.03;;;11.92;100.00
46638;BME280;32365;46.938;7.390;2022-10-22T06:57:38;95427.25;;;12.01;100.00
46638;BME280;32365;46.938;7.390;2022-10-22T07:00:05;95425.19;;;12.03;100.00
46638;BME280;32365;46.938;7.390;2022-10-22T07:02:32;95430.31;;;11.98;100.00
46638;BME280;32365;46.938;7.390;2022-10-22T07:04:59;95445.00;;;11.92;100.00
46638;BME280;32365;46.938;7.390;2022-10-22T07:07:25;95437.44;;;11.91;100.00
46638;BME280;32365;46.938;7.390;2022-10-22T07:09:53;95444.63;;;12.00;100.00
46638;BME280;32365;46.938;7.390;2022-10-22T07:12:20;95443.00;;;12.11;100.00
46638;BME280;32365;46.938;7.390;2022-10-22T07:14:47;95455.81;;;12.18;100.00
46638;BME280;32365;46.938;7.390;2022-10-22T07:17:14;95446.00;;;12.20;100.00
46638;BME280;32365;46.938;7.390;2022-10-22T07:19:40;95458.31;;;12.47;100.00
46638;BME280;32365;46.938;7.390;2022-10-22T07:22:06;95455.72;;;12.47;100.00
46638;BME280;32365;46.938;7.390;2022-10-22T07:24:33;95455.69;;;12.64;100.00
46638;BME280;32365;46.938;7.390;2022-10-22T07:27:01;95466.41;;;13.29;100.00
46638;BME280;32365;46.938;7.390;2022-10-22T07:29:27;95468.38;;;14.21;100.00
46638;BME280;32365;46.938;7.390;2022-10-22T07:31:54;95463.03;;;15.98;100.00
46638;BME280;32365;46.938;7.390;2022-10-22T07:34:20;95465.34;;;16.67;93.49
46638;BME280;32365;46.938;7.390;2022-10-22T07:36:46;95460.31;;;15.67;92.81
46638;BME280;32365;46.938;7.390;2022-10-22T07:39:13;95469.53;;;16.00;94.22
46638;BME280;32365;46.938;7.390;2022-10-22T07:41:39;95465.38;;;16.36;92.24
46638;BME280;32365;46.938;7.390;2022-10-22T07:44:07;95469.81;;;16.56;92.91
46638;BME280;32365;46.938;7.390;2022-10-22T07:46:33;95467.75;;;17.99;83.03
46638;BME280;32365;46.938;7.390;2022-10-22T07:49:00;95470.53;;;16.82;87.08
46638;BME280;32365;46.938;7.390;2022-10-22T07:51:26;95463.00;;;16.60;90.02
46638;BME280;32365;46.938;7.390;2022-10-22T07:53:53;95469.44;;;15.64;92.01
46638;BME280;32365;46.938;7.390;2022-10-22T07:56:19;95458.97;;;15.44;95.15
46638;BME280;32365;46.938;7.390;2022-10-22T07:58:46;95457.19;;;14.96;96.40
46638;BME280;32365;46.938;7.390;2022-10-22T08:01:13;95463.34;;;15.33;99.81
46638;BME280;32365;46.938;7.390;2022-10-22T08:03:40;95464.97;;;14.91;97.23
46638;BME280;32365;46.938;7.390;2022-10-22T08:06:06;95469.13;;;14.49;99.92
46638;BME280;32365;46.938;7.390;2022-10-22T08:08:32;95472.41;;;14.34;100.00
46638;BME280;32365;46.938;7.390;2022-10-22T08:10:59;95470.75;;;14.60;100.00
46638;BME280;32365;46.938;7.390;2022-10-22T08:13:26;95471.25;;;14.57;100.00
46638;BME280;32365;46.938;7.390;2022-10-22T08:15:54;95478.66;;;14.38;100.00
46638;BME280;32365;46.938;7.390;2022-10-22T08:18:22;95472.00;;;14.20;100.00
46638;BME280;32365;46.938;7.390;2022-10-22T08:20:48;95479.97;;;14.36;100.00
46638;BME280;32365;46.938;7.390;2022-10-22T08:23:15;95472.63;;;14.27;100.00
46638;BME280;32365;46.938;7.390;2022-10-22T08:25:42;95473.22;;;14.07;100.00
46638;BME280;32365;46.938;7.390;2022-10-22T08:28:08;95479.00;;;14.14;100.00
46638;BME280;32365;46.938;7.390;2022-10-22T08:30:35;95479.63;;;14.27;100.00
46638;BME280;32365;46.938;7.390;2022-10-22T08:33:02;95477.75;;;14.17;100.00
46638;BME280;32365;46.938;7.390;2022-10-22T08:35:31;95476.31;;;14.04;100.00
46638;BME280;32365;46.938;7.390;2022-10-22T08:37:57;95478.72;;;14.11;100.00
46638;BME280;32365;46.938;7.390;2022-10-22T08:40:24;95480.78;;;14.09;100.00
46638;BME280;32365;46.938;7.390;2022-10-22T08:45:42;95470.78;;;15.72;98.37
46638;BME280;32365;46.938;7.390;2022-10-22T08:48:15;95470.88;;;16.44;94.90
46638;BME280;32365;46.938;7.390;2022-10-22T08:50:49;95475.78;;;16.87;89.12
46638;BME280;32365;46.938;7.390;2022-10-22T08:53:17;95469.47;;;16.93;88.92
46638;BME280;32365;46.938;7.390;2022-10-22T08:55:44;95472.16;;;16.31;94.12
46638;BME280;32365;46.938;7.390;2022-10-22T08:58:13;95477.91;;;16.65;89.61
46638;BME280;32365;46.938;7.390;2022-10-22T09:00:45;95481.28;;;16.81;86.61
46638;BME280;32365;46.938;7.390;2022-10-22T09:03:22;95476.44;;;17.34;88.10
46638;BME280;32365;46.938;7.390;2022-10-22T09:05:55;95469.38;;;17.30;84.45
46638;BME280;32365;46.938;7.390;2022-10-22T09:08:25;95475.19;;;17.21;80.94
46638;BME280;32365;46.938;7.390;2022-10-22T09:10:53;95474.97;;;17.68;83.97
46638;BME280;32365;46.938;7.390;2022-10-22T09:13:21;95479.28;;;17.48;87.27
46638;BME280;32365;46.938;7.390;2022-10-22T09:15:50;95481.13;;;17.88;85.17
46638;BME280;32365;46.938;7.390;2022-10-22T09:18:21;95493.22;;;17.83;83.05
46638;BME280;32365;46.938;7.390;2022-10-22T09:20:50;95485.53;;;18.37;78.73
46638;BME280;32365;46.938;7.390;2022-10-22T09:23:23;95489.44;;;17.55;84.04
46638;BME280;32365;46.938;7.390;2022-10-22T09:25:53;95487.84;;;16.26;81.65
46638;BME280;32365;46.938;7.390;2022-10-22T09:28:22;95493.03;;;16.78;84.04
46638;BME280;32365;46.938;7.390;2022-10-22T09:30:48;95497.50;;;16.83;88.43
46638;BME280;32365;46.938;7.390;2022-10-22T09:33:15;95493.00;;;17.04;86.64
46638;BME280;32365;46.938;7.390;2022-10-22T09:35:43;95499.84;;;16.33;87.65
46638;BME280;32365;46.938;7.390;2022-10-22T09:38:10;95501.66;;;17.04;84.84
46638;BME280;32365;46.938;7.390;2022-10-22T09:40:43;95500.38;;;16.76;83.91
46638;BME280;32365;46.938;7.390;2022-10-22T09:43:11;95501.00;;;17.99;79.06
46638;BME280;32365;46.938;7.390;2022-10-22T09:45:37;95503.81;;;19.55;70.25
46638;BME280;32365;46.938;7.390;2022-10-22T09:48:08;95501.91;;;20.70;65.26
46638;BME280;32365;46.938;7.390;2022-10-22T09:50:38;95497.31;;;21.23;61.63
46638;BME280;32365;46.938;7.390;2022-10-22T09:53:10;95502.72;;;21.96;59.69
46638;BME280;32365;46.938;7.390;2022-10-22T09:55:37;95499.44;;;22.36;61.35
46638;BME280;32365;46.938;7.390;2022-10-22T09:58:07;95498.28;;;23.37;52.18
46638;BME280;32365;46.938;7.390;2022-10-22T10:00:36;95498.69;;;22.13;58.03
46638;BME280;32365;46.938;7.390;2022-10-22T10:03:03;95500.97;;;21.92;60.44
46638;BME280;32365;46.938;7.390;2022-10-22T10:05:30;95511.84;;;21.34;61.95
46638;BME280;32365;46.938;7.390;2022-10-22T10:07:56;95507.06;;;20.61;63.07
46638;BME280;32365;46.938;7.390;2022-10-22T10:10:27;95508.38;;;19.68;66.33
46638;BME280;32365;46.938;7.390;2022-10-22T10:12:59;95513.09;;;19.23;67.28
46638;BME280;32365;46.938;7.390;2022-10-22T10:15:30;95515.09;;;18.48;71.26
46638;BME280;32365;46.938;7.390;2022-10-22T10:18:03;95508.19;;;18.23;68.55
46638;BME280;32365;46.938;7.390;2022-10-22T10:20:33;95510.31;;;18.21;72.19
46638;BME280;32365;46.938;7.390;2022-10-22T10:23:07;95513.16;;;17.74;71.34
46638;BME280;32365;46.938;7.390;2022-10-22T10:25:36;95522.16;;;19.36;68.52
46638;BME280;32365;46.938;7.390;2022-10-22T10:28:09;95514.78;;;22.48;54.77
46638;BME280;32365;46.938;7.390;2022-10-22T10:30:40;95518.06;;;23.17;54.32
46638;BME280;32365;46.938;7.390;2022-10-22T10:33:12;95521.63;;;22.81;54.75
46638;BME280;32365;46.938;7.390;2022-10-22T10:35:45;95519.69;;;24.46;52.38
46638;BME280;32365;46.938;7.390;2022-10-22T10:38:24;95513.94;;;24.44;54.48
46638;BME280;32365;46.938;7.390;2022-10-22T10:40:58;95519.38;;;22.65;55.81
46638;BME280;32365;46.938;7.390;2022-10-22T10:43:29;95522.91;;;22.92;53.74
46638;BME280;32365;46.938;7.390;2022-10-22T10:46:02;95521.31;;;23.54;54.00
46638;BME280;32365;46.938;7.390;2022-10-22T10:48:34;95504.09;;;26.00;47.75
46638;BME280;32365;46.938;7.390;2022-10-22T10:51:06;95516.06;;;26.15;45.73
46638;BME280;32365;46.938;7.390;2022-10-22T10:53:37;95511.16;;;28.20;40.90
46638;BME280;32365;46.938;7.390;2022-10-22T10:56:10;95512.03;;;27.59;42.83
46638;BME280;32365;46.938;7.390;2022-10-22T10:58:47;95507.44;;;26.18;45.04
46638;BME280;32365;46.938;7.390;2022-10-22T11:01:22;95503.13;;;26.80;41.33
46638;BME280;32365;46.938;7.390;2022-10-22T11:03:53;95511.03;;;27.63;41.81
46638;BME280;32365;46.938;7.390;2022-10-22T11:06:23;95503.03;;;27.14;42.91
46638;BME280;32365;46.938;7.390;2022-10-22T11:08:51;95502.50;;;26.07;43.31
46638;BME280;32365;46.938;7.390;2022-10-22T11:11:21;95500.16;;;27.81;39.14
46638;BME280;32365;46.938;7.390;2022-10-22T11:13:52;95494.81;;;27.93;39.87
46638;BME280;32365;46.938;7.390;2022-10-22T11:16:23;95487.63;;;27.81;39.38
46638;BME280;32365;46.938;7.390;2022-10-22T11:18:52;95486.41;;;24.36;45.54
46638;BME280;32365;46.938;7.390;2022-10-22T11:21:21;95478.53;;;25.23;46.88
46638;BME280;32365;46.938;7.390;2022-10-22T11:23:50;95472.84;;;25.03;47.80
46638;BME280;32365;46.938;7.390;2022-10-22T11:26:23;95481.63;;;25.25;48.10
46638;BME280;32365;46.938;7.390;2022-10-22T11:28:52;95478.91;;;25.93;44.17
46638;BME280;32365;46.938;7.390;2022-10-22T11:31:22;95479.03;;;26.18;43.12
46638;BME280;32365;46.938;7.390;2022-10-22T11:33:51;95481.72;;;25.37;45.78
46638;BME280;32365;46.938;7.390;2022-10-22T11:36:20;95468.50;;;25.28;44.89
46638;BME280;32365;46.938;7.390;2022-10-22T11:38:47;95475.00;;;25.40;43.19
46638;BME280;32365;46.938;7.390;2022-10-22T11:41:15;95472.50;;;28.10;39.18
46638;BME280;32365;46.938;7.390;2022-10-22T11:43:53;95465.31;;;26.16;41.19
46638;BME280;32365;46.938;7.390;2022-10-22T11:46:26;95471.44;;;27.87;40.73
46638;BME280;32365;46.938;7.390;2022-10-22T11:49:02;95469.31;;;27.52;40.19
46638;BME280;32365;46.938;7.390;2022-10-22T11:51:30;95464.00;;;27.92;38.71
46638;BME280;32365;46.938;7.390;2022-10-22T11:53:57;95465.78;;;26.52;43.31
46638;BME280;32365;46.938;7.390;2022-10-22T11:56:26;95460.56;;;26.55;41.66
46638;BME280;32365;46.938;7.390;2022-10-22T11:59:01;95454.28;;;25.42;44.97
46638;BME280;32365;46.938;7.390;2022-10-22T12:01:28;95452.13;;;26.41;45.35
46638;BME280;32365;46.938;7.390;2022-10-22T12:06:52;95452.47;;;28.74;37.48
46638;BME280;32365;46.938;7.390;2022-10-22T12:09:19;95453.72;;;28.19;38.65
46638;BME280;32365;46.938;7.390;2022-10-22T12:11:49;95437.78;;;26.54;41.87
46638;BME280;32365;46.938;7.390;2022-10-22T12:14:18;95436.31;;;26.11;43.59
46638;BME280;32365;46.938;7.390;2022-10-22T12:16:46;95438.72;;;26.25;42.87
46638;BME280;32365;46.938;7.390;2022-10-22T12:19:14;95442.56;;;28.01;39.94
46638;BME280;32365;46.938;7.390;2022-10-22T12:21:42;95444.59;;;27.92;38.52
46638;BME280;32365;46.938;7.390;2022-10-22T12:24:12;95454.06;;;25.56;45.45
46638;BME280;32365;46.938;7.390;2022-10-22T12:26:39;95444.81;;;26.38;40.86
46638;BME280;32365;46.938;7.390;2022-10-22T12:29:08;95437.38;;;26.77;41.35
46638;BME280;32365;46.938;7.390;2022-10-22T12:31:36;95440.38;;;27.25;40.53
46638;BME280;32365;46.938;7.390;2022-10-22T12:34:03;95443.38;;;27.11;40.25
46638;BME280;32365;46.938;7.390;2022-10-22T12:36:31;95439.19;;;25.63;43.67
46638;BME280;32365;46.938;7.390;2022-10-22T12:38:58;95430.81;;;25.01;46.41
46638;BME280;32365;46.938;7.390;2022-10-22T12:41:30;95439.22;;;26.77;41.15
46638;BME280;32365;46.938;7.390;2022-10-22T12:44:00;95432.94;;;26.02;41.11
46638;BME280;32365;46.938;7.390;2022-10-22T12:46:27;95427.63;;;24.78;48.27
46638;BME280;32365;46.938;7.390;2022-10-22T12:48:57;95428.09;;;26.25;43.22
46638;BME280;32365;46.938;7.390;2022-10-22T12:51:24;95426.75;;;25.97;44.62
46638;BME280;32365;46.938;7.390;2022-10-22T12:53:51;95419.66;;;26.10;44.40
46638;BME280;32365;46.938;7.390;2022-10-22T12:56:20;95422.84;;;26.50;40.87
46638;BME280;32365;46.938;7.390;2022-10-22T12:58:50;95417.72;;;25.26;44.06
46638;BME280;32365;46.938;7.390;2022-10-22T13:01:17;95415.69;;;25.02;46.59
46638;BME280;32365;46.938;7.390;2022-10-22T13:03:45;95416.88;;;26.65;41.99
46638;BME280;32365;46.938;7.390;2022-10-22T13:06:21;95412.59;;;25.72;44.02
46638;BME280;32365;46.938;7.390;2022-10-22T13:08:54;95409.25;;;25.42;42.12
46638;BME280;32365;46.938;7.390;2022-10-22T13:11:21;95404.81;;;25.25;45.33
46638;BME280;32365;46.938;7.390;2022-10-22T13:13:49;95404.91;;;24.12;48.95
46638;BME280;32365;46.938;7.390;2022-10-22T13:16:17;95400.47;;;25.20;44.75
46638;BME280;32365;46.938;7.390;2022-10-22T13:18:44;95405.47;;;24.92;46.84
46638;BME280;32365;46.938;7.390;2022-10-22T13:21:28;95406.00;;;24.11;45.68
46638;BME280;32365;46.938;7.390;2022-10-22T13:23:56;95403.81;;;24.13;46.63
46638;BME280;32365;46.938;7.390;2022-10-22T13:26:23;95403.50;;;25.10;44.04
46638;BME280;32365;46.938;7.390;2022-10-22T13:28:52;95398.16;;;23.09;48.06
46638;BME280;32365;46.938;7.390;2022-10-22T13:31:20;95405.00;;;22.70;51.46
46638;BME280;32365;46.938;7.390;2022-10-22T13:33:50;95392.66;;;22.48;50.67
46638;BME280;32365;46.938;7.390;2022-10-22T13:36:17;95393.09;;;21.73;52.85
46638;BME280;32365;46.938;7.390;2022-10-22T13:38:44;95394.97;;;22.26;53.11
46638;BME280;32365;46.938;7.390;2022-10-22T13:41:17;95388.84;;;21.86;52.63
46638;BME280;32365;46.938;7.390;2022-10-22T13:43:43;95387.44;;;21.29;55.48
46638;BME280;32365;46.938;7.390;2022-10-22T13:46:11;95384.94;;;21.10;55.13
46638;BME280;32365;46.938;7.390;2022-10-22T13:48:38;95390.56;;;21.90;53.65
46638;BME280;32365;46.938;7.390;2022-10-22T13:51:05;95386.84;;;21.32;55.53
46638;BME280;32365;46.938;7.390;2022-10-22T13:53:35;95388.59;;;21.73;55.18
46638;BME280;32365;46.938;7.390;2022-10-22T13:56:02;95384.19;;;22.05;52.30
46638;BME280;32365;46.938;7.390;2022-10-22T13:58:29;95382.41;;;22.95;49.43
46638;BME280;32365;46.938;7.390;2022-10-22T14:00:56;95382.81;;;22.39;52.86
46638;BME280;32365;46.938;7.390;2022-10-22T14:03:26;95374.53;;;23.04;49.31
46638;BME280;32365;46.938;7.390;2022-10-22T14:05:53;95375.97;;;22.70;49.87
46638;BME280;32365;46.938;7.390;2022-10-22T14:08:20;95378.41;;;21.44;54.71
46638;BME280;32365;46.938;7.390;2022-10-22T14:10:47;95375.19;;;20.68;57.26
46638;BME280;32365;46.938;7.390;2022-10-22T14:13:14;95378.63;;;19.89;59.92
46638;BME280;32365;46.938;7.390;2022-10-22T14:15:41;95380.69;;;19.15;62.85
46638;BME280;32365;46.938;7.390;2022-10-22T14:18:08;95380.13;;;19.57;63.86
46638;BME280;32365;46.938;7.390;2022-10-22T14:20:39;95378.44;;;19.47;62.89
46638;BME280;32365;46.938;7.390;2022-10-22T14:23:10;95377.53;;;19.13;64.51
46638;BME280;32365;46.938;7.390;2022-10-22T14:25:38;95374.03;;;19.61;61.35
46638;BME280;32365;46.938;7.390;2022-10-22T14:28:04;95368.72;;;19.28;62.63
46638;BME280;32365;46.938;7.390;2022-10-22T14:30:31;95368.34;;;19.16;63.95
46638;BME280;32365;46.938;7.390;2022-10-22T14:32:58;95371.81;;;18.87;67.78
46638;BME280;32365;46.938;7.390;2022-10-22T14:35:24;95367.13;;;18.84;68.51
46638;BME280;32365;46.938;7.390;2022-10-22T14:37:52;95367.34;;;18.63;68.21
46638;BME280;32365;46.938;7.390;2022-10-22T14:40:19;95375.50;;;18.86;70.66
46638;BME280;32365;46.938;7.390;2022-10-22T14:42:46;95377.19;;;18.76;68.70
46638;BME280;32365;46.938;7.390;2022-10-22T14:45:13;95364.16;;;18.42;70.22
46638;BME280;32365;46.938;7.390;2022-10-22T14:47:41;95361.53;;;18.42;70.08
46638;BME280;32365;46.938;7.390;2022-10-22T14:50:08;95351.22;;;18.26;69.11
46638;BME280;32365;46.938;7.390;2022-10-22T14:52:34;95349.19;;;18.18;70.83
46638;BME280;32365;46.938;7.390;2022-10-22T14:55:02;95346.00;;;17.92;72.10
46638;BME280;32365;46.938;7.390;2022-10-22T14:57:29;95348.31;;;17.98;70.23
46638;BME280;32365;46.938;7.390;2022-10-22T14:59:55;95354.31;;;17.99;70.45
46638;BME280;32365;46.938;7.390;2022-10-22T15:02:21;95357.88;;;18.13;69.34
46638;BME280;32365;46.938;7.390;2022-10-22T15:04:50;95361.19;;;18.24;69.38
46638;BME280;32365;46.938;7.390;2022-10-22T15:07:16;95355.75;;;18.15;70.86
46638;BME280;32365;46.938;7.390;2022-10-22T15:09:44;95363.41;;;18.12;70.98
46638;BME280;32365;46.938;7.390;2022-10-22T15:12:12;95360.81;;;18.07;71.01
46638;BME280;32365;46.938;7.390;2022-10-22T15:14:38;95359.13;;;18.21;71.54
46638;BME280;32365;46.938;7.390;2022-10-22T15:17:05;95365.63;;;18.24;71.87
46638;BME280;32365;46.938;7.390;2022-10-22T15:19:31;95364.13;;;18.18;71.35
46638;BME280;32365;46.938;7.390;2022-10-22T15:21:58;95357.31;;;17.82;71.13
46638;BME280;32365;46.938;7.390;2022-10-22T15:24:24;95362.19;;;17.64;71.82
46638;BME280;32365;46.938;7.390;2022-10-22T15:26:51;95365.75;;;17.79;72.89
46638;BME280;32365;46.938;7.390;2022-10-22T15:29:19;95375.50;;;17.68;72.73
46638;BME280;32365;46.938;7.390;2022-10-22T15:31:47;95367.34;;;17.35;71.39
46638;BME280;32365;46.938;7.390;2022-10-22T15:34:17;95365.81;;;17.23;72.79
46638;BME280;32365;46.938;7.390;2022-10-22T15:36:43;95370.25;;;17.23;72.91
46638;BME280;32365;46.938;7.390;2022-10-22T15:39:10;95372.63;;;17.25;76.05
46638;BME280;32365;46.938;7.390;2022-10-22T15:41:36;95376.06;;;17.15;76.33
46638;BME280;32365;46.938;7.390;2022-10-22T15:44:03;95369.34;;;16.98;77.18
46638;BME280;32365;46.938;7.390;2022-10-22T15:46:31;95367.00;;;17.02;77.88
46638;BME280;32365;46.938;7.390;2022-10-22T15:48:58;95363.94;;;16.64;78.83
46638;BME280;32365;46.938;7.390;2022-10-22T15:51:24;95368.09;;;16.70;78.49
46638;BME280;32365;46.938;7.390;2022-10-22T15:53:51;95373.84;;;16.72;78.78
46638;BME280;32365;46.938;7.390;2022-10-22T15:56:18;95378.56;;;16.70;78.49
46638;BME280;32365;46.938;7.390;2022-10-22T15:58:44;95380.66;;;16.68;79.39
46638;BME280;32365;46.938;7.390;2022-10-22T16:01:11;95378.59;;;16.54;81.91
46638;BME280;32365;46.938;7.390;2022-10-22T16:03:40;95379.44;;;16.34;82.46
46638;BME280;32365;46.938;7.390;2022-10-22T16:06:06;95378.38;;;16.45;82.33
46638;BME280;32365;46.938;7.390;2022-10-22T16:08:33;95387.78;;;16.36;83.27
46638;BME280;32365;46.938;7.390;2022-10-22T16:11:00;95391.19;;;16.31;83.74
46638;BME280;32365;46.938;7.390;2022-10-22T16:13:26;95399.28;;;16.35;82.66
46638;BME280;32365;46.938;7.390;2022-10-22T16:15:53;95390.16;;;16.17;84.39
46638;BME280;32365;46.938;7.390;2022-10-22T16:18:19;95380.25;;;15.93;85.94
46638;BME280;32365;46.938;7.390;2022-10-22T16:20:49;95386.47;;;15.66;85.98
46638;BME280;32365;46.938;7.390;2022-10-22T16:23:15;95382.56;;;15.69;86.48
46638;BME280;32365;46.938;7.390;2022-10-22T16:25:43;95383.88;;;15.66;86.10
46638;BME280;32365;46.938;7.390;2022-10-22T16:28:10;95379.91;;;15.38;88.11
46638;BME280;32365;46.938;7.390;2022-10-22T16:30:37;95379.31;;;15.20;89.31
46638;BME280;32365;46.938;7.390;2022-10-22T16:33:04;95385.06;;;15.22;91.62
46638;BME280;32365;46.938;7.390;2022-10-22T16:35:31;95372.75;;;15.02;91.57
46638;BME280;32365;46.938;7.390;2022-10-22T16:37:59;95375.53;;;14.80;91.48
46638;BME280;32365;46.938;7.390;2022-10-22T16:40:26;95371.38;;;14.84;91.17
46638;BME280;32365;46.938;7.390;2022-10-22T16:42:53;95383.06;;;14.71;92.00
46638;BME280;32365;46.938;7.390;2022-10-22T16:45:19;95373.28;;;14.56;92.56
46638;BME280;32365;46.938;7.390;2022-10-22T16:47:46;95379.25;;;14.52;94.44
46638;BME280;32365;46.938;7.390;2022-10-22T16:50:13;95380.03;;;14.47;94.24
46638;BME280;32365;46.938;7.390;2022-10-22T16:52:39;95383.94;;;14.44;95.05
46638;BME280;32365;46.938;7.390;2022-10-22T16:55:07;95380.72;;;14.32;94.96
46638;BME280;32365;46.938;7.390;2022-10-22T16:57:34;95387.00;;;14.36;95.09
46638;BME280;32365;46.938;7.390;2022-10-22T17:00:01;95381.53;;;14.38;95.93
46638;BME280;32365;46.938;7.390;2022-10-22T17:02:27;95384.50;;;14.14;95.70
46638;BME280;32365;46.938;7.390;2022-10-22T17:04:54;95396.03;;;13.91;95.96
46638;BME280;32365;46.938;7.390;2022-10-22T17:07:20;95394.38;;;13.79;97.37
46638;BME280;32365;46.938;7.390;2022-10-22T17:09:47;95402.19;;;13.79;98.17
46638;BME280;32365;46.938;7.390;2022-10-22T17:12:15;95402.50;;;13.83;97.84
46638;BME280;32365;46.938;7.390;2022-10-22T17:14:41;95407.56;;;13.67;98.31
46638;BME280;32365;46.938;7.390;2022-10-22T17:17:08;95406.19;;;13.60;98.35
46638;BME280;32365;46.938;7.390;2022-10-22T17:19:34;95406.66;;;13.57;99.10
46638;BME280;32365;46.938;7.390;2022-10-22T17:22:02;95403.47;;;13.49;99.63
46638;BME280;32365;46.938;7.390;2022-10-22T17:24:29;95397.25;;;13.50;100.00
46638;BME280;32365;46.938;7.390;2022-10-22T17:26:56;95403.84;;;13.36;99.69
46638;BME280;32365;46.938;7.390;2022-10-22T17:29:24;95406.44;;;13.36;99.83
46638;BME280;32365;46.938;7.390;2022-10-22T17:31:50;95395.13;;;13.47;100.00
46638;BME280;32365;46.938;7.390;2022-10-22T17:34:17;95401.31;;;13.41;99.93
46638;BME280;32365;46.938;7.390;2022-10-22T17:36:43;95389.19;;;13.30;100.00
46638;BME280;32365;46.938;7.390;2022-10-22T17:39:10;95392.25;;;13.21;100.00
46638;BME280;32365;46.938;7.390;2022-10-22T17:41:39;95395.31;;;13.18;100.00
46638;BME280;32365;46.938;7.390;2022-10-22T17:44:06;95402.34;;;13.18;100.00
46638;BME280;32365;46.938;7.390;2022-10-22T17:46:35;95397.00;;;13.30;100.00
46638;BME280;32365;46.938;7.390;2022-10-22T17:49:03;95406.22;;;13.15;100.00
46638;BME280;32365;46.938;7.390;2022-10-22T17:51:31;95400.59;;;13.23;100.00
46638;BME280;32365;46.938;7.390;2022-10-22T17:53:57;95407.66;;;13.28;100.00
46638;BME280;32365;46.938;7.390;2022-10-22T17:56:25;95409.34;;;13.17;100.00
46638;BME280;32365;46.938;7.390;2022-10-22T17:58:52;95411.59;;;13.08;100.00
46638;BME280;32365;46.938;7.390;2022-10-22T18:01:20;95416.19;;;13.01;100.00
46638;BME280;32365;46.938;7.390;2022-10-22T18:03:48;95413.28;;;12.98;100.00
46638;BME280;32365;46.938;7.390;2022-10-22T18:06:15;95416.28;;;13.12;100.00
46638;BME280;32365;46.938;7.390;2022-10-22T18:08:41;95414.06;;;13.20;100.00
46638;BME280;32365;46.938;7.390;2022-10-22T18:11:08;95412.38;;;13.09;100.00
46638;BME280;32365;46.938;7.390;2022-10-22T18:13:35;95408.88;;;12.98;100.00
46638;BME280;32365;46.938;7.390;2022-10-22T18:16:01;95413.50;;;13.18;100.00
46638;BME280;32365;46.938;7.390;2022-10-22T18:18:28;95417.09;;;13.12;100.00
46638;BME280;32365;46.938;7.390;2022-10-22T18:20:56;95414.13;;;13.03;100.00
46638;BME280;32365;46.938;7.390;2022-10-22T18:23:24;95410.38;;;13.16;100.00
46638;BME280;32365;46.938;7.390;2022-10-22T18:25:51;95420.25;;;13.14;100.00
46638;BME280;32365;46.938;7.390;2022-10-22T18:28:17;95417.38;;;13.16;100.00
46638;BME280;32365;46.938;7.390;2022-10-22T18:30:45;95413.75;;;13.17;100.00
46638;BME280;32365;46.938;7.390;2022-10-22T18:33:12;95416.06;;;13.13;100.00
46638;BME280;32365;46.938;7.390;2022-10-22T18:35:39;95417.75;;;13.02;100.00
46638;BME280;32365;46.938;7.390;2022-10-22T18:38:07;95420.53;;;12.96;100.00
46638;BME280;32365;46.938;7.390;2022-10-22T18:40:34;95418.19;;;12.94;100.00
46638;BME280;32365;46.938;7.390;2022-10-22T18:43:01;95418.19;;;12.94;100.00
46638;BME280;32365;46.938;7.390;2022-10-22T18:45:27;95423.84;;;12.91;100.00
46638;BME280;32365;46.938;7.390;2022-10-22T18:47:54;95425.94;;;12.72;100.00
46638;BME280;32365;46.938;7.390;2022-10-22T18:50:20;95418.16;;;12.72;100.00
